sensor_id;sensor_type;location;lat;lon;timestamp;temperature;humidity
10583;DHT22;33679;51.218;6.786;2024-03-02T00:00:59;11.30;99.90
10583;DHT22;33679;51.218;6.786;2024-03-02T00:03:34;11.30;99.90
10583;DHT22;33679;51.218;6.786;2024-03-02T00:06:08;11.30;99.90
10583;DHT22;33679;51.218;6.786;2024-03-02T00:08:40;11.40;99.90
10583;DHT22;33679;51.218;6.786;2024-03-02T00:11:15;11.40;99.90
10583;DHT22;33679;51.218;6.786;2024-03-02T00:13:47;11.30;99.90
10583;DHT22;33679;51.218;6.786;2024-03-02T00:16:20;11.30;99.90
10583;DHT22;33679;51.218;6.786;2024-03-02T00:18:54;11.40;99.90
10583;DHT22;33679;51.218;6.786;2024-03-02T00:21:30;11.40;99.90
10583;DHT22;33679;51.218;6.786;2024-03-02T00:24:09;11.50;99.90
10583;DHT22;33679;51.218;6.786;2024-03-02T00:26:50;11.50;99.90
10583;DHT22;33679;51.218;6.786;2024-03-02T00:29:22;11.50;99.90
10583;DHT22;33679;51.218;6.786;2024-03-02T00:31:55;11.50;99.90
10583;DHT22;33679;51.218;6.786;2024-03-02T00:34:29;11.50;99.90
10583;DHT22;33679;51.218;6.786;2024-03-02T00:37:03;11.50;99.90
10583;DHT22;33679;51.218;6.786;2024-03-02T00:39:35;11.50;99.90
10583;DHT22;33679;51.218;6.786;2024-03-02T00:42:09;11.50;99.90
10583;DHT22;33679;51.218;6.786;2024-03-02T00:44:45;11.50;99.90
10583;DHT22;33679;51.218;6.786;2024-03-02T00:47:20;11.50;99.90
10583;DHT22;33679;51.218;6.786;2024-03-02T00:49:53;11.50;99.90
10583;DHT22;33679;51.218;6.786;2024-03-02T00:52:27;11.60;99.90
10583;DHT22;33679;51.218;6.786;2024-03-02T00:55:01;11.50;99.90
10583;DHT22;33679;51.218;6.786;2024-03-02T00:57:37;11.60;99.90
10583;DHT22;33679;51.218;6.786;2024-03-02T01:00:11;11.60;99.90
10583;DHT22;33679;51.218;6.786;2024-03-02T01:02:46;11.60;99.90
10583;DHT22;33679;51.218;6.786;2024-03-02T01:05:18;11.60;99.90
10583;DHT22;33679;51.218;6.786;2024-03-02T01:07:52;11.60;99.90
10583;DHT22;33679;51.218;6.786;2024-03-02T01:10:26;11.60;99.90
10583;DHT22;33679;51.218;6.786;2024-03-02T01:12:59;11.60;99.90
10583;DHT22;33679;51.218;6.786;2024-03-02T01:15:32;11.70;99.90
10583;DHT22;33679;51.218;6.786;2024-03-02T01:18:05;11.70;99.90
10583;DHT22;33679;51.218;6.786;2024-03-02T01:20:38;11.70;99.90
10583;DHT22;33679;51.218;6.786;2024-03-02T01:23:13;11.70;99.90
10583;DHT22;33679;51.218;6.786;2024-03-02T01:25:47;11.70;99.90
10583;DHT22;33679;51.218;6.786;2024-03-02T01:28:20;11.70;99.90
10583;DHT22;33679;51.218;6.786;2024-03-02T01:30:52;11.60;99.90
10583;DHT22;33679;51.218;6.786;2024-03-02T01:33:27;11.60;99.90
10583;DHT22;33679;51.218;6.786;2024-03-02T01:36:00;11.70;99.90
10583;DHT22;33679;51.218;6.786;2024-03-02T01:38:36;11.60;99.90
10583;DHT22;33679;51.218;6.786;2024-03-02T01:41:08;11.60;99.90
10583;DHT22;33679;51.218;6.786;2024-03-02T01:43:41;11.60;99.90
10583;DHT22;33679;51.218;6.786;2024-03-02T01:46:16;11.60;99.90
10583;DHT22;33679;51.218;6.786;2024-03-02T01:48:48;11.60;99.90
10583;DHT22;33679;51.218;6.786;2024-03-02T01:51:21;11.60;99.90
10583;DHT22;33679;51.218;6.786;2024-03-02T01:53:55;11.50;99.90
10583;DHT22;33679;51.218;6.786;2024-03-02T01:56:27;11.50;99.90
10583;DHT22;33679;51.218;6.786;2024-03-02T01:59:00;11.50;99.90
10583;DHT22;33679;51.218;6.786;2024-03-02T02:01:33;11.50;99.90
10583;DHT22;33679;51.218;6.786;2024-03-02T02:04:06;11.50;99.90
10583;DHT22;33679;51.218;6.786;2024-03-02T02:06:38;11.60;99.90
10583;DHT22;33679;51.218;6.786;2024-03-02T02:09:12;11.50;99.90
10583;DHT22;33679;51.218;6.786;2024-03-02T02:11:44;11.50;99.90
10583;DHT22;33679;51.218;6.786;2024-03-02T02:14:17;11.50;99.90
10583;DHT22;33679;51.218;6.786;2024-03-02T02:16:53;11.60;99.90
10583;DHT22;33679;51.218;6.786;2024-03-02T02:19:25;11.60;99.90
10583;DHT22;33679;51.218;6.786;2024-03-02T02:22:01;11.60;99.90
10583;DHT22;33679;51.218;6.786;2024-03-02T02:24:33;11.70;99.90
10583;DHT22;33679;51.218;6.786;2024-03-02T02:27:05;11.70;99.90
10583;DHT22;33679;51.218;6.786;2024-03-02T02:29:38;11.70;99.90
10583;DHT22;33679;51.218;6.786;2024-03-02T02:32:10;11.70;99.90
10583;DHT22;33679;51.218;6.786;2024-03-02T02:34:43;11.70;99.90
10583;DHT22;33679;51.218;6.786;2024-03-02T02:37:17;11.80;99.90
10583;DHT22;33679;51.218;6.786;2024-03-02T02:39:49;11.80;99.90
10583;DHT22;33679;51.218;6.786;2024-03-02T02:42:22;11.80;99.90
10583;DHT22;33679;51.218;6.786;2024-03-02T02:44:54;11.90;99.90
10583;DHT22;33679;51.218;6.786;2024-03-02T02:47:26;11.90;99.90
10583;DHT22;33679;51.218;6.786;2024-03-02T02:50:00;11.80;99.90
10583;DHT22;33679;51.218;6.786;2024-03-02T02:52:35;11.80;99.90
10583;DHT22;33679;51.218;6.786;2024-03-02T02:55:17;11.90;99.90
10583;DHT22;33679;51.218;6.786;2024-03-02T02:57:49;11.90;99.90
10583;DHT22;33679;51.218;6.786;2024-03-02T03:00:23;11.90;99.90
10583;DHT22;33679;51.218;6.786;2024-03-02T03:02:55;11.90;99.90
10583;DHT22;33679;51.218;6.786;2024-03-02T03:05:29;11.90;99.90
10583;DHT22;33679;51.218;6.786;2024-03-02T03:08:04;11.90;99.90
10583;DHT22;33679;51.218;6.786;2024-03-02T03:10:36;11.90;99.90
10583;DHT22;33679;51.218;6.786;2024-03-02T03:13:09;11.90;99.90
10583;DHT22;33679;51.218;6.786;2024-03-02T03:15:44;11.80;99.90
10583;DHT22;33679;51.218;6.786;2024-03-02T03:18:17;11.80;99.90
10583;DHT22;33679;51.218;6.786;2024-03-02T03:20:49;11.80;99.90
10583;DHT22;33679;51.218;6.786;2024-03-02T03:23:23;11.70;99.90
10583;DHT22;33679;51.218;6.786;2024-03-02T03:25:59;11.80;99.90
10583;DHT22;33679;51.218;6.786;2024-03-02T03:28:33;11.70;99.90
10583;DHT22;33679;51.218;6.786;2024-03-02T03:31:05;11.80;99.90
10583;DHT22;33679;51.218;6.786;2024-03-02T03:33:37;11.80;99.90
10583;DHT22;33679;51.218;6.786;2024-03-02T03:36:10;11.80;99.90
10583;DHT22;33679;51.218;6.786;2024-03-02T03:38:43;11.80;99.90
10583;DHT22;33679;51.218;6.786;2024-03-02T03:41:16;11.80;99.90
10583;DHT22;33679;51.218;6.786;2024-03-02T03:43:48;11.70;99.90
10583;DHT22;33679;51.218;6.786;2024-03-02T03:46:20;11.80;99.90
10583;DHT22;33679;51.218;6.786;2024-03-02T03:48:54;11.70;99.90
10583;DHT22;33679;51.218;6.786;2024-03-02T03:51:28;11.80;99.90
10583;DHT22;33679;51.218;6.786;2024-03-02T03:54:03;11.80;99.90
10583;DHT22;33679;51.218;6.786;2024-03-02T03:56:36;11.70;99.90
10583;DHT22;33679;51.218;6.786;2024-03-02T03:59:08;11.70;99.90
10583;DHT22;33679;51.218;6.786;2024-03-02T04:01:40;11.70;99.90
10583;DHT22;33679;51.218;6.786;2024-03-02T04:04:13;11.70;99.90
10583;DHT22;33679;51.218;6.786;2024-03-02T04:06:45;11.70;99.90
10583;DHT22;33679;51.218;6.786;2024-03-02T04:09:19;11.70;99.90
10583;DHT22;33679;51.218;6.786;2024-03-02T04:11:52;11.70;99.90
10583;DHT22;33679;51.218;6.786;2024-03-02T04:14:25;11.70;99.90
10583;DHT22;33679;51.218;6.786;2024-03-02T04:16:57;11.70;99.90
10583;DHT22;33679;51.218;6.786;2024-03-02T04:19:30;11.70;99.90
10583;DHT22;33679;51.218;6.786;2024-03-02T04:22:04;11.70;99.90
10583;DHT22;33679;51.218;6.786;2024-03-02T04:24:38;11.70;99.90
10583;DHT22;33679;51.218;6.786;2024-03-02T04:27:11;11.70;99.90
10583;DHT22;33679;51.218;6.786;2024-03-02T04:29:43;11.70;99.90
10583;DHT22;33679;51.218;6.786;2024-03-02T04:32:15;11.60;99.90
10583;DHT22;33679;51.218;6.786;2024-03-02T04:34:48;11.60;99.90
10583;DHT22;33679;51.218;6.786;2024-03-02T04:37:20;11.50;99.90
10583;DHT22;33679;51.218;6.786;2024-03-02T04:39:56;11.60;99.90
10583;DHT22;33679;51.218;6.786;2024-03-02T04:42:29;11.50;99.90
10583;DHT22;33679;51.218;6.786;2024-03-02T04:45:02;11.50;99.90
10583;DHT22;33679;51.218;6.786;2024-03-02T04:47:35;11.50;99.90
10583;DHT22;33679;51.218;6.786;2024-03-02T04:50:08;11.50;99.90
10583;DHT22;33679;51.218;6.786;2024-03-02T04:52:41;11.50;99.90
10583;DHT22;33679;51.218;6.786;2024-03-02T04:55:15;11.50;99.90
10583;DHT22;33679;51.218;6.786;2024-03-02T04:58:06;11.40;99.90
10583;DHT22;33679;51.218;6.786;2024-03-02T05:00:39;11.40;99.90
10583;DHT22;33679;51.218;6.786;2024-03-02T05:03:14;11.40;99.90
10583;DHT22;33679;51.218;6.786;2024-03-02T05:05:50;11.40;99.90
10583;DHT22;33679;51.218;6.786;2024-03-02T05:08:23;11.40;99.90
10583;DHT22;33679;51.218;6.786;2024-03-02T05:10:57;11.30;99.90
10583;DHT22;33679;51.218;6.786;2024-03-02T05:13:51;11.30;99.90
10583;DHT22;33679;51.218;6.786;2024-03-02T05:16:22;11.30;99.90
10583;DHT22;33679;51.218;6.786;2024-03-02T05:18:55;11.30;99.90
10583;DHT22;33679;51.218;6.786;2024-03-02T05:21:27;11.20;99.90
10583;DHT22;33679;51.218;6.786;2024-03-02T05:24:00;11.20;99.90
10583;DHT22;33679;51.218;6.786;2024-03-02T05:26:34;11.20;99.90
10583;DHT22;33679;51.218;6.786;2024-03-02T05:29:07;11.20;99.90
10583;DHT22;33679;51.218;6.786;2024-03-02T05:31:39;11.10;99.90
10583;DHT22;33679;51.218;6.786;2024-03-02T05:34:11;11.20;99.90
10583;DHT22;33679;51.218;6.786;2024-03-02T05:36:47;11.10;99.90
10583;DHT22;33679;51.218;6.786;2024-03-02T05:39:20;11.10;99.90
10583;DHT22;33679;51.218;6.786;2024-03-02T05:41:53;11.00;99.90
10583;DHT22;33679;51.218;6.786;2024-03-02T05:44:30;11.00;99.90
10583;DHT22;33679;51.218;6.786;2024-03-02T05:47:06;10.90;99.90
10583;DHT22;33679;51.218;6.786;2024-03-02T05:49:40;10.90;99.90
10583;DHT22;33679;51.218;6.786;2024-03-02T05:52:14;10.90;99.90
10583;DHT22;33679;51.218;6.786;2024-03-02T05:54:46;10.90;99.90
10583;DHT22;33679;51.218;6.786;2024-03-02T05:57:21;10.90;99.90
10583;DHT22;33679;51.218;6.786;2024-03-02T06:00:16;10.90;99.90
10583;DHT22;33679;51.218;6.786;2024-03-02T06:02:49;10.90;99.90
10583;DHT22;33679;51.218;6.786;2024-03-02T06:05:22;10.90;99.90
10583;DHT22;33679;51.218;6.786;2024-03-02T06:07:56;10.90;99.90
10583;DHT22;33679;51.218;6.786;2024-03-02T06:10:28;10.90;99.90
10583;DHT22;33679;51.218;6.786;2024-03-02T06:13:02;10.90;99.90
10583;DHT22;33679;51.218;6.786;2024-03-02T06:15:35;10.90;99.90
10583;DHT22;33679;51.218;6.786;2024-03-02T06:18:10;10.90;99.90
10583;DHT22;33679;51.218;6.786;2024-03-02T06:20:44;10.90;99.90
10583;DHT22;33679;51.218;6.786;2024-03-02T06:23:16;10.90;99.90
10583;DHT22;33679;51.218;6.786;2024-03-02T06:25:51;10.90;99.90
10583;DHT22;33679;51.218;6.786;2024-03-02T06:28:26;10.90;99.90
10583;DHT22;33679;51.218;6.786;2024-03-02T06:30:58;11.00;99.90
10583;DHT22;33679;51.218;6.786;2024-03-02T06:33:33;11.00;99.90
10583;DHT22;33679;51.218;6.786;2024-03-02T06:36:06;11.00;99.90
10583;DHT22;33679;51.218;6.786;2024-03-02T06:38:40;11.00;99.90
10583;DHT22;33679;51.218;6.786;2024-03-02T06:41:13;11.10;99.90
10583;DHT22;33679;51.218;6.786;2024-03-02T06:43:47;11.10;99.90
10583;DHT22;33679;51.218;6.786;2024-03-02T06:46:19;11.10;99.90
10583;DHT22;33679;51.218;6.786;2024-03-02T06:48:54;11.10;99.90
10583;DHT22;33679;51.218;6.786;2024-03-02T06:51:26;11.10;99.90
10583;DHT22;33679;51.218;6.786;2024-03-02T06:53:58;11.10;99.90
10583;DHT22;33679;51.218;6.786;2024-03-02T06:56:32;11.20;99.90
10583;DHT22;33679;51.218;6.786;2024-03-02T06:59:11;11.10;99.90
10583;DHT22;33679;51.218;6.786;2024-03-02T07:01:46;11.20;99.90
10583;DHT22;33679;51.218;6.786;2024-03-02T07:04:19;11.20;99.90
10583;DHT22;33679;51.218;6.786;2024-03-02T07:06:51;11.20;99.90
10583;DHT22;33679;51.218;6.786;2024-03-02T07:09:24;11.20;99.90
10583;DHT22;33679;51.218;6.786;2024-03-02T07:11:56;11.20;99.90
10583;DHT22;33679;51.218;6.786;2024-03-02T07:14:30;11.20;99.90
10583;DHT22;33679;51.218;6.786;2024-03-02T07:17:16;11.30;99.90
10583;DHT22;33679;51.218;6.786;2024-03-02T07:19:48;11.30;99.90
10583;DHT22;33679;51.218;6.786;2024-03-02T07:22:22;11.30;99.90
10583;DHT22;33679;51.218;6.786;2024-03-02T07:24:55;11.30;99.90
10583;DHT22;33679;51.218;6.786;2024-03-02T07:27:29;11.40;99.90
10583;DHT22;33679;51.218;6.786;2024-03-02T07:30:05;11.50;99.90
10583;DHT22;33679;51.218;6.786;2024-03-02T07:32:37;11.50;99.90
10583;DHT22;33679;51.218;6.786;2024-03-02T07:35:12;11.60;99.90
10583;DHT22;33679;51.218;6.786;2024-03-02T07:37:46;11.70;99.90
10583;DHT22;33679;51.218;6.786;2024-03-02T07:40:19;11.70;99.90
10583;DHT22;33679;51.218;6.786;2024-03-02T07:42:52;11.80;99.90
10583;DHT22;33679;51.218;6.786;2024-03-02T07:45:26;11.80;99.90
10583;DHT22;33679;51.218;6.786;2024-03-02T07:47:58;11.90;99.90
10583;DHT22;33679;51.218;6.786;2024-03-02T07:50:32;12.00;99.90
10583;DHT22;33679;51.218;6.786;2024-03-02T07:53:07;12.10;99.90
10583;DHT22;33679;51.218;6.786;2024-03-02T07:55:39;12.20;99.90
10583;DHT22;33679;51.218;6.786;2024-03-02T07:58:12;12.30;99.90
10583;DHT22;33679;51.218;6.786;2024-03-02T08:00:48;12.40;99.90
10583;DHT22;33679;51.218;6.786;2024-03-02T08:03:20;12.50;99.90
10583;DHT22;33679;51.218;6.786;2024-03-02T08:05:56;12.50;99.90
10583;DHT22;33679;51.218;6.786;2024-03-02T08:08:32;12.60;99.90
10583;DHT22;33679;51.218;6.786;2024-03-02T08:11:05;12.70;99.90
10583;DHT22;33679;51.218;6.786;2024-03-02T08:13:38;12.70;99.90
10583;DHT22;33679;51.218;6.786;2024-03-02T08:16:14;12.80;99.90
10583;DHT22;33679;51.218;6.786;2024-03-02T08:18:47;12.80;99.90
10583;DHT22;33679;51.218;6.786;2024-03-02T08:21:20;12.90;99.90
10583;DHT22;33679;51.218;6.786;2024-03-02T08:23:53;12.90;99.90
10583;DHT22;33679;51.218;6.786;2024-03-02T08:26:25;13.00;99.90
10583;DHT22;33679;51.218;6.786;2024-03-02T08:29:02;13.00;99.90
10583;DHT22;33679;51.218;6.786;2024-03-02T08:31:38;13.10;99.90
10583;DHT22;33679;51.218;6.786;2024-03-02T08:34:25;13.20;99.90
10583;DHT22;33679;51.218;6.786;2024-03-02T08:36:57;13.20;99.90
10583;DHT22;33679;51.218;6.786;2024-03-02T08:39:30;13.30;99.90
10583;DHT22;33679;51.218;6.786;2024-03-02T08:42:02;13.30;99.90
10583;DHT22;33679;51.218;6.786;2024-03-02T08:44:36;13.30;99.90
10583;DHT22;33679;51.218;6.786;2024-03-02T08:47:09;13.40;99.90
10583;DHT22;33679;51.218;6.786;2024-03-02T08:49:42;13.40;99.90
10583;DHT22;33679;51.218;6.786;2024-03-02T08:52:16;13.40;99.90
10583;DHT22;33679;51.218;6.786;2024-03-02T08:54:49;13.40;99.90
10583;DHT22;33679;51.218;6.786;2024-03-02T08:57:22;13.40;99.90
10583;DHT22;33679;51.218;6.786;2024-03-02T08:59:57;13.30;99.90
10583;DHT22;33679;51.218;6.786;2024-03-02T09:02:34;13.30;99.90
10583;DHT22;33679;51.218;6.786;2024-03-02T09:05:10;13.30;99.90
10583;DHT22;33679;51.218;6.786;2024-03-02T09:07:43;13.30;99.90
10583;DHT22;33679;51.218;6.786;2024-03-02T09:10:18;13.30;99.90
10583;DHT22;33679;51.218;6.786;2024-03-02T09:12:52;13.30;99.90
10583;DHT22;33679;51.218;6.786;2024-03-02T09:15:24;13.40;99.90
10583;DHT22;33679;51.218;6.786;2024-03-02T09:17:58;13.40;99.90
10583;DHT22;33679;51.218;6.786;2024-03-02T09:20:32;13.40;99.90
10583;DHT22;33679;51.218;6.786;2024-03-02T09:23:04;13.50;99.90
10583;DHT22;33679;51.218;6.786;2024-03-02T09:25:38;13.50;99.90
10583;DHT22;33679;51.218;6.786;2024-03-02T09:28:12;13.50;99.90
10583;DHT22;33679;51.218;6.786;2024-03-02T09:30:44;13.50;99.90
10583;DHT22;33679;51.218;6.786;2024-03-02T09:33:18;13.60;99.90
10583;DHT22;33679;51.218;6.786;2024-03-02T09:35:50;13.70;99.90
10583;DHT22;33679;51.218;6.786;2024-03-02T09:38:23;13.60;99.90
10583;DHT22;33679;51.218;6.786;2024-03-02T09:40:55;13.70;99.90
10583;DHT22;33679;51.218;6.786;2024-03-02T09:43:28;13.80;99.90
10583;DHT22;33679;51.218;6.786;2024-03-02T09:46:02;13.80;99.90
10583;DHT22;33679;51.218;6.786;2024-03-02T09:48:36;13.90;99.90
10583;DHT22;33679;51.218;6.786;2024-03-02T09:51:08;13.90;99.90
10583;DHT22;33679;51.218;6.786;2024-03-02T09:53:41;13.90;99.90
10583;DHT22;33679;51.218;6.786;2024-03-02T09:56:15;14.00;99.90
10583;DHT22;33679;51.218;6.786;2024-03-02T09:58:49;14.10;99.90
10583;DHT22;33679;51.218;6.786;2024-03-02T10:01:21;14.20;99.90
10583;DHT22;33679;51.218;6.786;2024-03-02T10:03:55;14.20;99.90
10583;DHT22;33679;51.218;6.786;2024-03-02T10:06:30;14.20;99.90
10583;DHT22;33679;51.218;6.786;2024-03-02T10:09:03;14.30;99.90
10583;DHT22;33679;51.218;6.786;2024-03-02T10:11:36;14.30;99.90
10583;DHT22;33679;51.218;6.786;2024-03-02T10:14:10;14.40;99.90
10583;DHT22;33679;51.218;6.786;2024-03-02T10:16:44;14.40;99.90
10583;DHT22;33679;51.218;6.786;2024-03-02T10:19:20;14.50;99.90
10583;DHT22;33679;51.218;6.786;2024-03-02T10:21:54;14.60;99.90
10583;DHT22;33679;51.218;6.786;2024-03-02T10:24:36;14.60;99.90
10583;DHT22;33679;51.218;6.786;2024-03-02T10:27:10;14.60;99.90
10583;DHT22;33679;51.218;6.786;2024-03-02T10:29:47;14.60;99.90
10583;DHT22;33679;51.218;6.786;2024-03-02T10:32:22;14.70;99.90
10583;DHT22;33679;51.218;6.786;2024-03-02T10:34:56;14.80;99.90
10583;DHT22;33679;51.218;6.786;2024-03-02T10:37:29;14.80;99.90
10583;DHT22;33679;51.218;6.786;2024-03-02T10:40:05;14.80;99.90
10583;DHT22;33679;51.218;6.786;2024-03-02T10:42:39;14.80;99.90
10583;DHT22;33679;51.218;6.786;2024-03-02T10:45:13;14.80;99.90
10583;DHT22;33679;51.218;6.786;2024-03-02T10:47:47;14.80;99.90
10583;DHT22;33679;51.218;6.786;2024-03-02T10:50:21;14.80;99.90
10583;DHT22;33679;51.218;6.786;2024-03-02T10:52:53;14.90;99.90
10583;DHT22;33679;51.218;6.786;2024-03-02T10:55:26;14.90;99.90
10583;DHT22;33679;51.218;6.786;2024-03-02T10:58:00;14.90;99.90
10583;DHT22;33679;51.218;6.786;2024-03-02T11:00:39;14.90;99.90
10583;DHT22;33679;51.218;6.786;2024-03-02T11:03:14;14.90;99.90
10583;DHT22;33679;51.218;6.786;2024-03-02T11:05:49;14.90;99.90
10583;DHT22;33679;51.218;6.786;2024-03-02T11:08:26;15.00;99.90
10583;DHT22;33679;51.218;6.786;2024-03-02T11:11:06;15.00;99.90
10583;DHT22;33679;51.218;6.786;2024-03-02T11:13:43;15.00;99.90
10583;DHT22;33679;51.218;6.786;2024-03-02T11:16:27;15.00;99.90
10583;DHT22;33679;51.218;6.786;2024-03-02T11:19:08;15.00;99.90
10583;DHT22;33679;51.218;6.786;2024-03-02T11:21:43;15.00;99.90
10583;DHT22;33679;51.218;6.786;2024-03-02T11:24:32;15.10;99.90
10583;DHT22;33679;51.218;6.786;2024-03-02T11:27:06;15.10;99.90
10583;DHT22;33679;51.218;6.786;2024-03-02T11:29:47;15.00;99.90
10583;DHT22;33679;51.218;6.786;2024-03-02T11:32:22;15.00;99.90
10583;DHT22;33679;51.218;6.786;2024-03-02T11:35:05;15.10;99.90
10583;DHT22;33679;51.218;6.786;2024-03-02T11:37:42;15.10;99.90
10583;DHT22;33679;51.218;6.786;2024-03-02T11:40:21;15.10;99.90
10583;DHT22;33679;51.218;6.786;2024-03-02T11:42:54;15.20;99.90
10583;DHT22;33679;51.218;6.786;2024-03-02T11:45:27;15.20;99.90
10583;DHT22;33679;51.218;6.786;2024-03-02T11:48:00;15.30;99.90
10583;DHT22;33679;51.218;6.786;2024-03-02T11:50:35;15.30;99.90
10583;DHT22;33679;51.218;6.786;2024-03-02T11:53:22;15.40;99.90
10583;DHT22;33679;51.218;6.786;2024-03-02T11:55:58;15.50;99.90
10583;DHT22;33679;51.218;6.786;2024-03-02T11:58:33;15.60;99.90
10583;DHT22;33679;51.218;6.786;2024-03-02T12:01:07;15.60;99.90
10583;DHT22;33679;51.218;6.786;2024-03-02T12:03:42;15.70;99.90
10583;DHT22;33679;51.218;6.786;2024-03-02T12:06:15;15.70;99.90
10583;DHT22;33679;51.218;6.786;2024-03-02T12:08:54;15.70;99.90
10583;DHT22;33679;51.218;6.786;2024-03-02T12:11:27;15.80;99.90
10583;DHT22;33679;51.218;6.786;2024-03-02T12:13:59;15.80;99.90
10583;DHT22;33679;51.218;6.786;2024-03-02T12:16:32;15.80;99.90
10583;DHT22;33679;51.218;6.786;2024-03-02T12:19:04;15.80;99.90
10583;DHT22;33679;51.218;6.786;2024-03-02T12:21:38;15.80;99.90
10583;DHT22;33679;51.218;6.786;2024-03-02T12:24:16;15.90;99.90
10583;DHT22;33679;51.218;6.786;2024-03-02T12:26:50;15.90;99.90
10583;DHT22;33679;51.218;6.786;2024-03-02T12:29:23;15.90;99.90
10583;DHT22;33679;51.218;6.786;2024-03-02T12:31:57;16.00;99.90
10583;DHT22;33679;51.218;6.786;2024-03-02T12:34:29;16.00;99.90
10583;DHT22;33679;51.218;6.786;2024-03-02T12:37:02;16.10;99.90
10583;DHT22;33679;51.218;6.786;2024-03-02T12:39:37;16.20;99.90
10583;DHT22;33679;51.218;6.786;2024-03-02T12:42:10;16.30;99.90
10583;DHT22;33679;51.218;6.786;2024-03-02T12:44:43;16.40;99.90
10583;DHT22;33679;51.218;6.786;2024-03-02T12:47:15;16.50;99.90
10583;DHT22;33679;51.218;6.786;2024-03-02T12:49:47;16.50;99.90
10583;DHT22;33679;51.218;6.786;2024-03-02T12:52:22;16.50;99.90
10583;DHT22;33679;51.218;6.786;2024-03-02T12:54:56;16.60;99.90
10583;DHT22;33679;51.218;6.786;2024-03-02T12:57:30;16.60;99.90
10583;DHT22;33679;51.218;6.786;2024-03-02T13:00:05;16.80;99.90
10583;DHT22;33679;51.218;6.786;2024-03-02T13:02:41;16.80;99.90
10583;DHT22;33679;51.218;6.786;2024-03-02T13:05:15;16.80;99.90
10583;DHT22;33679;51.218;6.786;2024-03-02T13:07:50;16.90;99.90
10583;DHT22;33679;51.218;6.786;2024-03-02T13:10:26;16.80;99.90
10583;DHT22;33679;51.218;6.786;2024-03-02T13:13:01;16.80;99.90
10583;DHT22;33679;51.218;6.786;2024-03-02T13:15:33;16.80;99.90
10583;DHT22;33679;51.218;6.786;2024-03-02T13:18:09;16.80;99.90
10583;DHT22;33679;51.218;6.786;2024-03-02T13:20:41;16.80;99.90
10583;DHT22;33679;51.218;6.786;2024-03-02T13:23:14;16.80;99.90
10583;DHT22;33679;51.218;6.786;2024-03-02T13:25:48;16.80;99.90
10583;DHT22;33679;51.218;6.786;2024-03-02T13:28:22;16.70;99.90
10583;DHT22;33679;51.218;6.786;2024-03-02T13:30:54;16.70;99.90
10583;DHT22;33679;51.218;6.786;2024-03-02T13:33:27;16.60;99.90
10583;DHT22;33679;51.218;6.786;2024-03-02T13:36:02;16.60;99.90
10583;DHT22;33679;51.218;6.786;2024-03-02T13:38:34;16.60;99.90
10583;DHT22;33679;51.218;6.786;2024-03-02T13:41:08;16.60;99.90
10583;DHT22;33679;51.218;6.786;2024-03-02T13:43:42;16.60;99.90
10583;DHT22;33679;51.218;6.786;2024-03-02T13:46:16;16.60;99.90
10583;DHT22;33679;51.218;6.786;2024-03-02T13:48:48;16.70;99.90
10583;DHT22;33679;51.218;6.786;2024-03-02T13:51:21;16.70;99.90
10583;DHT22;33679;51.218;6.786;2024-03-02T13:53:53;16.70;99.90
10583;DHT22;33679;51.218;6.786;2024-03-02T13:56:27;16.70;99.90
10583;DHT22;33679;51.218;6.786;2024-03-02T13:58:59;16.70;99.90
10583;DHT22;33679;51.218;6.786;2024-03-02T14:01:33;16.70;99.90
10583;DHT22;33679;51.218;6.786;2024-03-02T14:04:06;16.80;99.90
10583;DHT22;33679;51.218;6.786;2024-03-02T14:06:38;16.70;99.90
10583;DHT22;33679;51.218;6.786;2024-03-02T14:09:11;16.70;99.90
10583;DHT22;33679;51.218;6.786;2024-03-02T14:11:46;16.70;99.90
10583;DHT22;33679;51.218;6.786;2024-03-02T14:14:18;16.70;99.90
10583;DHT22;33679;51.218;6.786;2024-03-02T14:16:51;16.70;99.90
10583;DHT22;33679;51.218;6.786;2024-03-02T14:19:24;16.70;99.90
10583;DHT22;33679;51.218;6.786;2024-03-02T14:21:57;16.70;99.90
10583;DHT22;33679;51.218;6.786;2024-03-02T14:24:29;16.70;99.90
10583;DHT22;33679;51.218;6.786;2024-03-02T14:27:03;16.70;99.90
10583;DHT22;33679;51.218;6.786;2024-03-02T14:29:36;16.70;99.90
10583;DHT22;33679;51.218;6.786;2024-03-02T14:32:10;16.80;99.90
10583;DHT22;33679;51.218;6.786;2024-03-02T14:34:43;16.80;99.90
10583;DHT22;33679;51.218;6.786;2024-03-02T14:37:17;16.80;99.90
10583;DHT22;33679;51.218;6.786;2024-03-02T14:39:50;16.80;99.90
10583;DHT22;33679;51.218;6.786;2024-03-02T14:42:24;16.80;99.90
10583;DHT22;33679;51.218;6.786;2024-03-02T14:44:56;16.70;99.90
10583;DHT22;33679;51.218;6.786;2024-03-02T14:47:29;16.70;99.90
10583;DHT22;33679;51.218;6.786;2024-03-02T14:50:02;16.60;99.90
10583;DHT22;33679;51.218;6.786;2024-03-02T14:52:37;16.60;99.90
10583;DHT22;33679;51.218;6.786;2024-03-02T14:55:09;16.60;99.90
10583;DHT22;33679;51.218;6.786;2024-03-02T14:57:44;16.60;99.90
10583;DHT22;33679;51.218;6.786;2024-03-02T15:00:17;16.70;99.90
10583;DHT22;33679;51.218;6.786;2024-03-02T15:02:50;16.70;99.90
10583;DHT22;33679;51.218;6.786;2024-03-02T15:05:23;16.80;99.90
10583;DHT22;33679;51.218;6.786;2024-03-02T15:07:58;16.80;99.90
10583;DHT22;33679;51.218;6.786;2024-03-02T15:10:33;16.90;99.90
10583;DHT22;33679;51.218;6.786;2024-03-02T15:13:07;17.00;99.90
10583;DHT22;33679;51.218;6.786;2024-03-02T15:15:39;17.00;99.90
10583;DHT22;33679;51.218;6.786;2024-03-02T15:18:11;16.90;99.90
10583;DHT22;33679;51.218;6.786;2024-03-02T15:20:43;17.00;99.90
10583;DHT22;33679;51.218;6.786;2024-03-02T15:23:17;17.00;99.90
10583;DHT22;33679;51.218;6.786;2024-03-02T15:25:49;17.00;99.90
10583;DHT22;33679;51.218;6.786;2024-03-02T15:28:26;17.10;99.90
10583;DHT22;33679;51.218;6.786;2024-03-02T15:30:58;17.10;99.90
10583;DHT22;33679;51.218;6.786;2024-03-02T15:33:30;17.10;99.90
10583;DHT22;33679;51.218;6.786;2024-03-02T15:36:04;17.10;99.90
10583;DHT22;33679;51.218;6.786;2024-03-02T15:38:36;17.10;99.90
10583;DHT22;33679;51.218;6.786;2024-03-02T15:41:09;17.10;99.90
10583;DHT22;33679;51.218;6.786;2024-03-02T15:43:46;17.00;99.90
10583;DHT22;33679;51.218;6.786;2024-03-02T15:46:19;17.00;99.90
10583;DHT22;33679;51.218;6.786;2024-03-02T15:48:55;17.00;99.90
10583;DHT22;33679;51.218;6.786;2024-03-02T15:51:30;17.00;99.90
10583;DHT22;33679;51.218;6.786;2024-03-02T15:54:04;17.00;99.90
10583;DHT22;33679;51.218;6.786;2024-03-02T15:56:36;16.90;99.90
10583;DHT22;33679;51.218;6.786;2024-03-02T15:59:10;16.90;99.90
10583;DHT22;33679;51.218;6.786;2024-03-02T16:01:43;16.90;99.90
10583;DHT22;33679;51.218;6.786;2024-03-02T16:04:19;16.80;99.90
10583;DHT22;33679;51.218;6.786;2024-03-02T16:06:51;16.80;99.90
10583;DHT22;33679;51.218;6.786;2024-03-02T16:09:24;16.80;99.90
10583;DHT22;33679;51.218;6.786;2024-03-02T16:11:56;16.80;99.90